createdAt,value
2023-02-23T00:01:34.319Z,16.33
2023-02-23T00:04:00.981Z,11.25
2023-02-23T00:06:29.713Z,9.40
2023-02-23T00:08:57.056Z,12.75
2023-02-23T00:11:23.988Z,11.70
2023-02-23T00:13:51.158Z,8.65
2023-02-23T00:16:20.592Z,11.25
2023-02-23T00:18:52.968Z,7.63
2023-02-23T00:21:19.692Z,9.90
2023-02-23T00:23:55.131Z,9.00
2023-02-23T00:26:25.335Z,12.38
2023-02-23T00:28:53.965Z,10.25
2023-02-23T00:31:23.405Z,12.73
2023-02-23T00:33:49.897Z,10.82
2023-02-23T00:36:16.422Z,9.77
2023-02-23T00:38:44.153Z,11.90
2023-02-23T00:41:14.543Z,8.50
2023-02-23T00:43:41.915Z,8.48
2023-02-23T00:46:08.561Z,7.97
2023-02-23T00:48:35.560Z,10.43
2023-02-23T00:51:04.180Z,8.93
2023-02-23T00:53:31.868Z,11.43
2023-02-23T00:55:58.604Z,9.52
2023-02-23T00:58:26.583Z,10.77
2023-02-23T01:00:53.450Z,9.85
2023-02-23T01:03:21.162Z,14.02
2023-02-23T01:05:47.704Z,10.75
2023-02-23T01:08:16.063Z,10.40
2023-02-23T01:10:43.795Z,11.37
2023-02-23T01:13:11.808Z,12.82
2023-02-23T01:15:42.936Z,15.82
2023-02-23T01:18:11.171Z,10.60
2023-02-23T01:20:38.386Z,13.63
2023-02-23T01:23:05.027Z,12.02
2023-02-23T01:25:33.373Z,11.25
2023-02-23T01:28:00.792Z,12.63
2023-02-23T01:30:27.466Z,14.52
2023-02-23T01:32:54.234Z,13.02
2023-02-23T01:35:21.783Z,12.45
2023-02-23T01:37:49.321Z,27.88
2023-02-23T01:40:19.627Z,15.27
2023-02-23T01:42:46.809Z,12.30
2023-02-23T01:45:24.268Z,16.13
2023-02-23T01:47:53.300Z,12.93
2023-02-23T01:50:22.776Z,14.77
2023-02-23T01:52:52.045Z,13.48
2023-02-23T01:55:21.355Z,13.10
2023-02-23T01:57:47.923Z,13.60
2023-02-23T02:00:15.050Z,16.73
2023-02-23T02:02:41.728Z,19.75
2023-02-23T02:05:08.819Z,15.10
2023-02-23T02:07:36.708Z,14.18
2023-02-23T02:10:03.588Z,16.27
2023-02-23T02:12:30.840Z,14.75
2023-02-23T02:14:59.244Z,13.98
2023-02-23T02:17:39.983Z,13.05
2023-02-23T02:20:49.401Z,14.93
2023-02-23T02:23:31.905Z,19.15
2023-02-23T02:26:10.520Z,13.93
2023-02-23T02:28:59.492Z,14.23
2023-02-23T02:31:43.444Z,12.80
2023-02-23T02:34:42.767Z,19.73
2023-02-23T02:37:31.466Z,16.27
2023-02-23T02:39:58.073Z,14.73
2023-02-23T02:42:35.992Z,14.63
2023-02-23T02:45:15.623Z,17.70
2023-02-23T02:48:03.554Z,16.83
2023-02-23T02:50:44.390Z,19.30
2023-02-23T02:53:13.582Z,15.98
2023-02-23T02:55:43.810Z,17.45
2023-02-23T02:58:13.384Z,14.90
2023-02-23T03:00:41.480Z,14.02
2023-02-23T03:03:31.378Z,14.95
2023-02-23T03:05:57.956Z,17.45
2023-02-23T03:08:50.373Z,18.65
2023-02-23T03:11:17.321Z,16.13
2023-02-23T03:14:18.050Z,15.07
2023-02-23T03:17:03.927Z,13.85
2023-02-23T03:19:36.730Z,12.00
2023-02-23T03:22:38.193Z,13.10
2023-02-23T03:25:13.244Z,17.20
2023-02-23T03:27:49.531Z,13.57
2023-02-23T03:30:26.949Z,16.65
2023-02-23T03:32:59.854Z,10.63
2023-02-23T03:35:52.034Z,11.15
2023-02-23T03:38:32.479Z,13.45
2023-02-23T03:41:00.345Z,9.40
2023-02-23T03:43:35.104Z,10.82
2023-02-23T03:46:04.787Z,9.02
2023-02-23T03:48:36.278Z,9.60
2023-02-23T03:51:08.307Z,17.10
2023-02-23T03:53:47.461Z,13.25
2023-02-23T03:56:18.921Z,11.68
2023-02-23T03:58:51.262Z,13.85
2023-02-23T04:01:21.404Z,14.95
2023-02-23T04:03:51.756Z,13.27
2023-02-23T04:06:22.645Z,12.52
2023-02-23T04:08:51.018Z,12.25
2023-02-23T04:14:02.578Z,11.00
2023-02-23T04:16:32.019Z,13.13
2023-02-23T04:18:59.069Z,10.75
2023-02-23T04:21:25.598Z,13.10
2023-02-23T04:23:52.291Z,13.55
2023-02-23T04:26:18.765Z,13.43
2023-02-23T04:28:45.340Z,12.07
2023-02-23T04:31:11.970Z,11.95
2023-02-23T04:33:38.481Z,15.82
2023-02-23T04:36:05.543Z,14.65
2023-02-23T04:38:32.054Z,11.60
2023-02-23T04:40:58.742Z,14.63
2023-02-23T04:43:25.263Z,10.65
2023-02-23T04:45:51.834Z,17.00
2023-02-23T04:48:18.421Z,13.52
2023-02-23T04:50:44.987Z,16.70
2023-02-23T04:53:11.531Z,12.80
2023-02-23T04:55:38.014Z,11.88
2023-02-23T04:58:04.530Z,15.82
2023-02-23T05:00:31.186Z,18.63
2023-02-23T05:02:58.004Z,12.70
2023-02-23T05:05:24.881Z,12.82
2023-02-23T05:07:51.440Z,14.40
2023-02-23T05:10:18.091Z,15.18
2023-02-23T05:12:44.666Z,10.32
2023-02-23T05:15:11.514Z,13.60
2023-02-23T05:17:40.088Z,13.27
2023-02-23T05:20:07.102Z,13.10
2023-02-23T05:22:33.724Z,14.60
2023-02-23T05:25:00.222Z,15.45
2023-02-23T05:27:26.740Z,17.00
2023-02-23T05:29:53.568Z,14.48
2023-02-23T05:32:20.095Z,17.25
2023-02-23T05:34:46.661Z,17.05
2023-02-23T05:37:13.205Z,18.98
2023-02-23T05:39:40.912Z,18.63
2023-02-23T05:42:07.494Z,15.90
2023-02-23T05:44:34.073Z,18.55
2023-02-23T05:47:00.658Z,18.55
2023-02-23T05:49:27.240Z,15.65
2023-02-23T05:51:53.879Z,18.55
2023-02-23T05:54:20.360Z,15.00
2023-02-23T05:56:46.891Z,14.18
2023-02-23T05:59:13.405Z,12.18
2023-02-23T06:01:40.224Z,13.75
2023-02-23T06:04:06.740Z,14.55
2023-02-23T06:06:33.393Z,12.50
2023-02-23T06:09:00.031Z,11.20
2023-02-23T06:11:26.724Z,17.55
2023-02-23T06:13:53.241Z,16.58
2023-02-23T06:16:19.981Z,16.08
2023-02-23T06:18:46.675Z,10.20
2023-02-23T06:21:13.173Z,14.07
2023-02-23T06:23:39.714Z,15.95
2023-02-23T06:26:06.483Z,12.68
2023-02-23T06:28:33.002Z,13.93
2023-02-23T06:30:59.709Z,13.35
2023-02-23T06:33:26.570Z,12.68
2023-02-23T06:35:54.413Z,20.42
2023-02-23T06:38:21.748Z,13.18
2023-02-23T06:40:48.408Z,15.70
2023-02-23T06:43:14.943Z,16.63
2023-02-23T06:45:41.684Z,12.63
2023-02-23T06:48:08.333Z,12.90
2023-02-23T06:50:34.791Z,18.38
2023-02-23T06:53:01.346Z,15.75
2023-02-23T06:55:27.867Z,21.42
2023-02-23T06:57:54.462Z,16.65
2023-02-23T07:00:21.876Z,21.52
2023-02-23T07:02:48.765Z,16.98
2023-02-23T07:05:15.413Z,13.63
2023-02-23T07:07:42.015Z,15.55
2023-02-23T07:10:09.542Z,15.13
2023-02-23T07:12:36.014Z,17.77
2023-02-23T07:15:02.775Z,19.02
2023-02-23T07:17:29.304Z,14.77
2023-02-23T07:19:55.882Z,14.00
2023-02-23T07:22:22.576Z,14.30
2023-02-23T07:24:49.119Z,14.93
2023-02-23T07:27:15.638Z,16.33
2023-02-23T07:29:42.206Z,14.90
2023-02-23T07:32:09.157Z,15.75
2023-02-23T07:34:35.804Z,16.05
2023-02-23T07:37:02.468Z,18.17
2023-02-23T07:39:29.111Z,17.60
2023-02-23T07:41:55.640Z,14.50
2023-02-23T07:44:23.343Z,17.27
2023-02-23T07:46:49.851Z,19.92
2023-02-23T07:49:16.577Z,15.82
2023-02-23T07:51:43.209Z,15.40
2023-02-23T07:54:09.810Z,15.35
2023-02-23T07:56:36.324Z,18.08
2023-02-23T07:59:03.358Z,15.95
2023-02-23T08:01:29.879Z,14.15
2023-02-23T08:03:56.608Z,16.10
2023-02-23T08:06:23.343Z,14.20
2023-02-23T08:08:50.094Z,12.50
2023-02-23T08:11:17.018Z,13.98
2023-02-23T08:13:43.782Z,18.42
2023-02-23T08:16:13.330Z,21.02
2023-02-23T08:18:39.925Z,12.60
2023-02-23T08:21:06.652Z,13.63
2023-02-23T08:23:33.906Z,18.50
2023-02-23T08:26:01.368Z,15.88
2023-02-23T08:28:28.711Z,13.85
2023-02-23T08:30:55.431Z,19.27
2023-02-23T08:33:22.542Z,22.98
2023-02-23T08:35:49.259Z,13.63
2023-02-23T08:38:15.794Z,16.17
2023-02-23T08:40:42.265Z,16.92
2023-02-23T08:43:08.745Z,17.90
2023-02-23T08:45:35.252Z,17.42
2023-02-23T08:48:04.665Z,14.27
2023-02-23T08:50:31.264Z,16.70
2023-02-23T08:52:57.784Z,17.20
2023-02-23T08:55:24.374Z,22.88
2023-02-23T08:57:50.850Z,18.45
2023-02-23T09:00:17.860Z,19.55
2023-02-23T09:02:45.789Z,20.92
2023-02-23T09:05:13.687Z,16.58
2023-02-23T09:07:41.118Z,21.52
2023-02-23T09:10:08.600Z,14.88
2023-02-23T09:12:35.224Z,16.15
2023-02-23T09:15:01.830Z,15.15
2023-02-23T09:17:28.406Z,17.13
2023-02-23T09:19:54.964Z,13.70
2023-02-23T09:22:21.587Z,17.08
2023-02-23T09:24:48.090Z,17.40
2023-02-23T09:27:15.021Z,15.60
2023-02-23T09:29:41.752Z,17.05
2023-02-23T09:32:08.726Z,19.10
2023-02-23T09:34:37.388Z,16.30
2023-02-23T09:37:05.206Z,16.85
2023-02-23T09:39:38.144Z,17.50
2023-02-23T09:42:28.068Z,15.27
2023-02-23T09:45:06.034Z,18.38
2023-02-23T09:47:49.908Z,17.40
2023-02-23T09:50:23.409Z,14.00
2023-02-23T09:52:58.194Z,15.48
2023-02-23T09:55:27.154Z,12.98
2023-02-23T09:57:56.830Z,13.48
2023-02-23T10:00:25.211Z,17.23
2023-02-23T10:03:18.298Z,16.70
2023-02-23T10:05:55.032Z,13.73
2023-02-23T10:08:55.237Z,18.67
2023-02-23T10:11:31.899Z,12.55
2023-02-23T10:14:12.809Z,13.18
2023-02-23T10:16:45.026Z,11.75
2023-02-23T10:19:22.874Z,20.90
2023-02-23T10:22:01.503Z,18.77
2023-02-23T10:24:38.915Z,11.25
2023-02-23T10:27:19.298Z,13.10
2023-02-23T10:29:48.832Z,16.00
2023-02-23T10:32:20.228Z,14.02
2023-02-23T10:34:49.967Z,10.15
2023-02-23T10:37:17.623Z,13.00
2023-02-23T10:39:44.244Z,12.75
2023-02-23T10:42:19.546Z,12.20
2023-02-23T10:44:46.585Z,10.70
2023-02-23T10:47:20.080Z,14.02
2023-02-23T10:49:52.983Z,11.27
2023-02-23T10:52:45.397Z,12.25
2023-02-23T10:55:30.313Z,12.90
2023-02-23T10:58:10.788Z,10.55
2023-02-23T11:00:40.673Z,12.52
2023-02-23T11:03:27.683Z,9.48
2023-02-23T11:05:54.384Z,10.83
2023-02-23T11:08:33.048Z,28.38
2023-02-23T11:11:04.579Z,15.07
2023-02-23T11:13:43.550Z,17.92
2023-02-23T11:16:15.904Z,15.70
2023-02-23T11:18:51.308Z,18.58
2023-02-23T11:21:23.928Z,16.00
2023-02-23T11:23:53.766Z,32.72
2023-02-23T11:26:30.894Z,44.65
2023-02-23T11:29:02.116Z,17.40
2023-02-23T11:31:35.063Z,30.27
2023-02-23T11:34:04.988Z,56.00
2023-02-23T11:36:34.627Z,23.58
2023-02-23T11:39:14.547Z,15.15
2023-02-23T11:41:41.108Z,17.23
2023-02-23T11:44:19.750Z,12.98
2023-02-23T11:46:46.844Z,16.02
2023-02-23T11:49:20.486Z,14.73
2023-02-23T11:51:49.131Z,11.50
2023-02-23T11:54:31.237Z,10.55
2023-02-23T11:56:58.149Z,14.90
2023-02-23T11:59:32.037Z,11.25
2023-02-23T12:02:13.396Z,9.15
2023-02-23T12:04:41.341Z,14.57
2023-02-23T12:07:29.370Z,15.02
2023-02-23T12:10:07.196Z,10.32
2023-02-23T12:12:42.768Z,12.20
2023-02-23T12:15:24.195Z,12.70
2023-02-23T12:18:00.589Z,11.27
2023-02-23T12:20:32.634Z,9.73
2023-02-23T12:23:13.189Z,9.75
2023-02-23T12:25:55.416Z,11.10
2023-02-23T12:28:39.387Z,14.88
2023-02-23T12:31:17.885Z,10.27
2023-02-23T12:33:48.921Z,14.55
2023-02-23T12:36:44.903Z,8.27
2023-02-23T12:39:22.232Z,11.63
2023-02-23T12:42:07.249Z,10.32
2023-02-23T12:44:53.874Z,13.25
2023-02-23T12:47:34.452Z,14.32
2023-02-23T12:50:10.221Z,13.93
2023-02-23T12:52:43.617Z,9.35
2023-02-23T12:55:13.235Z,12.10
2023-02-23T12:57:47.932Z,10.68
2023-02-23T13:00:50.420Z,11.52
2023-02-23T13:03:47.253Z,13.55
2023-02-23T13:06:20.123Z,8.20
2023-02-23T13:09:01.782Z,10.65
2023-02-23T13:11:49.834Z,11.77
2023-02-23T13:14:29.116Z,8.85
2023-02-23T13:17:24.234Z,7.68
2023-02-23T13:19:56.388Z,7.13
2023-02-23T13:22:34.936Z,23.83
2023-02-23T13:25:05.297Z,9.48
2023-02-23T13:27:40.693Z,9.23
2023-02-23T13:30:11.750Z,8.57
2023-02-23T13:32:38.991Z,7.30
2023-02-23T13:35:07.876Z,7.07
2023-02-23T13:37:55.976Z,7.97
2023-02-23T13:40:43.982Z,11.93
2023-02-23T13:43:30.405Z,6.50
2023-02-23T13:46:12.167Z,8.07
2023-02-23T13:49:00.529Z,9.68
2023-02-23T13:51:40.336Z,10.75
2023-02-23T13:54:23.557Z,13.77
2023-02-23T13:56:55.282Z,9.07
2023-02-23T13:59:34.981Z,7.03
2023-02-23T14:02:20.595Z,5.57
2023-02-23T14:04:47.298Z,9.65
2023-02-23T14:07:31.151Z,8.82
2023-02-23T14:10:06.090Z,8.80
2023-02-23T14:12:41.235Z,7.85
2023-02-23T14:15:26.122Z,5.25
2023-02-23T14:18:01.979Z,7.93
2023-02-23T14:20:53.499Z,6.88
2023-02-23T14:23:20.073Z,10.48
2023-02-23T14:25:52.049Z,8.93
2023-02-23T14:28:33.514Z,11.50
2023-02-23T14:31:07.111Z,10.32
2023-02-23T14:33:43.244Z,6.85
2023-02-23T14:36:22.032Z,6.63
2023-02-23T14:38:57.764Z,6.82
2023-02-23T14:41:28.687Z,8.25
2023-02-23T14:44:27.233Z,6.75
2023-02-23T14:47:01.032Z,6.55
2023-02-23T14:49:31.286Z,10.48
2023-02-23T14:52:05.033Z,6.93
2023-02-23T14:54:32.708Z,8.77
2023-02-23T14:57:02.091Z,7.07
2023-02-23T14:59:42.367Z,7.35
2023-02-23T15:02:18.027Z,4.93
2023-02-23T15:04:45.854Z,6.75
2023-02-23T15:07:31.195Z,5.32
2023-02-23T15:09:59.779Z,7.90
2023-02-23T15:12:29.658Z,6.65
2023-02-23T15:15:00.030Z,31.92
2023-02-23T15:17:29.864Z,28.55
2023-02-23T15:20:14.684Z,11.35
2023-02-23T15:22:43.438Z,5.72
2023-02-23T15:25:18.172Z,12.77
2023-02-23T15:27:46.236Z,5.63
2023-02-23T15:30:24.971Z,4.50
2023-02-23T15:33:09.774Z,4.53
2023-02-23T15:35:44.154Z,8.23
2023-02-23T15:38:40.376Z,7.85
2023-02-23T15:41:07.864Z,3.83
2023-02-23T15:43:34.887Z,8.80
2023-02-23T15:46:05.661Z,6.47
2023-02-23T15:48:43.512Z,3.60
2023-02-23T15:51:29.243Z,4.35
2023-02-23T15:54:37.410Z,6.38
2023-02-23T15:57:17.207Z,11.13
2023-02-23T15:59:46.742Z,6.65
2023-02-23T16:02:18.962Z,4.88
2023-02-23T16:04:47.801Z,7.18
2023-02-23T16:07:21.674Z,8.40
2023-02-23T16:10:24.414Z,8.20
2023-02-23T16:12:53.231Z,4.07
2023-02-23T16:15:39.486Z,5.32
2023-02-23T16:18:12.688Z,5.80
2023-02-23T16:20:42.508Z,7.55
2023-02-23T16:23:36.317Z,5.85
2023-02-23T16:26:11.713Z,8.15
2023-02-23T16:28:43.527Z,7.80
2023-02-23T16:31:25.687Z,8.10
2023-02-23T16:33:57.391Z,8.20
2023-02-23T16:36:33.445Z,6.47
2023-02-23T16:39:02.297Z,5.65
2023-02-23T16:41:33.922Z,10.43
2023-02-23T16:44:07.697Z,3.78
2023-02-23T16:46:54.188Z,3.78
2023-02-23T16:49:20.791Z,7.25
2023-02-23T16:51:47.394Z,4.82
2023-02-23T16:54:13.953Z,7.70
2023-02-23T16:56:40.779Z,4.00
2023-02-23T16:59:08.001Z,3.78
2023-02-23T17:01:34.542Z,8.90
2023-02-23T17:04:01.402Z,19.20
2023-02-23T17:06:28.116Z,16.10
2023-02-23T17:08:58.504Z,29.63
2023-02-23T17:11:26.045Z,12.40
2023-02-23T17:13:52.631Z,11.65
2023-02-23T17:16:19.832Z,9.95
2023-02-23T17:18:46.608Z,14.65
2023-02-23T17:21:14.113Z,14.23
2023-02-23T17:23:42.109Z,14.32
2023-02-23T17:26:11.180Z,9.85
2023-02-23T17:28:39.144Z,5.30
2023-02-23T17:31:07.046Z,8.15
2023-02-23T17:33:34.152Z,6.65
2023-02-23T17:36:01.919Z,14.90
2023-02-23T17:38:28.416Z,18.13
2023-02-23T17:40:54.895Z,13.88
2023-02-23T17:43:23.181Z,13.15
2023-02-23T17:45:52.332Z,10.30
2023-02-23T17:48:18.940Z,9.32
2023-02-23T17:50:45.493Z,12.30
2023-02-23T17:53:12.185Z,5.78
2023-02-23T17:55:38.720Z,12.02
2023-02-23T17:58:05.226Z,5.68
2023-02-23T18:00:31.833Z,9.05
2023-02-23T18:02:58.649Z,10.05
2023-02-23T18:05:25.109Z,6.82
2023-02-23T18:07:51.569Z,11.70
2023-02-23T18:10:18.345Z,11.75
2023-02-23T18:12:44.949Z,15.80
2023-02-23T18:15:11.598Z,11.75
2023-02-23T18:17:38.107Z,9.40
2023-02-23T18:20:06.179Z,9.45
2023-02-23T18:22:33.140Z,12.77
2023-02-23T18:25:00.188Z,11.38
2023-02-23T18:27:26.854Z,18.63
2023-02-23T18:29:53.525Z,13.60
2023-02-23T18:32:20.347Z,13.48
2023-02-23T18:34:46.949Z,15.73
2023-02-23T18:37:13.704Z,15.43
2023-02-23T18:39:40.223Z,15.60
2023-02-23T18:42:06.836Z,14.60
2023-02-23T18:44:35.173Z,13.05
2023-02-23T18:47:01.935Z,31.92
2023-02-23T18:49:28.528Z,18.65
2023-02-23T18:51:55.290Z,19.55
2023-02-23T18:54:21.896Z,14.00
2023-02-23T18:56:48.815Z,13.10
2023-02-23T18:59:16.037Z,16.30
2023-02-23T19:01:43.364Z,11.60
2023-02-23T19:04:11.176Z,16.60
2023-02-23T19:06:37.836Z,16.50
2023-02-23T19:09:05.072Z,13.27
2023-02-23T19:11:33.455Z,10.15
2023-02-23T19:14:06.015Z,11.07
2023-02-23T19:16:34.327Z,9.68
2023-02-23T19:19:02.295Z,7.43
2023-02-23T19:21:28.930Z,11.13
2023-02-23T19:23:56.229Z,8.27
2023-02-23T19:26:22.711Z,10.37
2023-02-23T19:28:49.582Z,7.60
2023-02-23T19:31:20.051Z,13.32
2023-02-23T19:33:48.847Z,14.07
2023-02-23T19:36:19.014Z,7.10
2023-02-23T19:38:45.858Z,8.75
2023-02-23T19:41:21.711Z,5.70
2023-02-23T19:43:48.389Z,8.38
2023-02-23T19:46:17.398Z,6.68
2023-02-23T19:48:48.128Z,11.20
2023-02-23T19:51:14.722Z,10.13
2023-02-23T19:53:41.269Z,7.30
2023-02-23T19:56:14.509Z,11.75
2023-02-23T19:58:41.169Z,10.82
2023-02-23T20:01:09.900Z,7.82
2023-02-23T20:03:38.396Z,15.48
2023-02-23T20:06:09.129Z,11.80
2023-02-23T20:08:35.616Z,8.40
2023-02-23T20:11:05.577Z,7.70
2023-02-23T20:13:32.307Z,7.97
2023-02-23T20:16:14.870Z,7.90
2023-02-23T20:18:42.436Z,6.47
2023-02-23T20:21:09.481Z,10.02
2023-02-23T20:23:36.295Z,7.28
2023-02-23T20:26:15.942Z,8.10
2023-02-23T20:28:42.699Z,11.55
2023-02-23T20:31:18.766Z,13.90
2023-02-23T20:33:45.499Z,8.95
2023-02-23T20:36:12.033Z,12.18
2023-02-23T20:38:39.079Z,6.95
2023-02-23T20:41:06.300Z,8.30
2023-02-23T20:43:32.774Z,12.48
2023-02-23T20:45:59.459Z,6.57
2023-02-23T20:48:27.718Z,10.75
2023-02-23T20:53:23.724Z,6.93
2023-02-23T20:55:51.418Z,8.63
2023-02-23T20:58:18.234Z,6.88
2023-02-23T21:00:45.197Z,8.85
2023-02-23T21:03:11.731Z,6.80
2023-02-23T21:05:39.343Z,6.25
2023-02-23T21:08:08.742Z,8.07
2023-02-23T21:10:38.867Z,7.82
2023-02-23T21:13:07.159Z,8.05
2023-02-23T21:15:33.682Z,8.88
2023-02-23T21:18:00.336Z,7.90
2023-02-23T21:20:27.299Z,8.57
2023-02-23T21:22:54.497Z,7.57
2023-02-23T21:25:23.777Z,5.25
2023-02-23T21:27:50.620Z,7.60
2023-02-23T21:30:19.243Z,5.28
2023-02-23T21:32:46.775Z,7.47
2023-02-23T21:35:13.620Z,6.90
2023-02-23T21:37:41.483Z,9.75
2023-02-23T21:42:43.786Z,6.40
2023-02-23T21:45:11.543Z,9.20
2023-02-23T21:47:39.977Z,6.30
2023-02-23T21:50:07.197Z,8.07
2023-02-23T21:52:33.759Z,9.27
2023-02-23T21:55:03.876Z,6.32
2023-02-23T21:57:32.561Z,6.72
2023-02-23T21:59:59.101Z,8.13
2023-02-23T22:02:25.904Z,9.63
2023-02-23T22:04:52.491Z,13.77
2023-02-23T22:07:19.466Z,13.05
2023-02-23T22:09:46.125Z,12.45
2023-02-23T22:12:12.923Z,13.13
2023-02-23T22:14:39.768Z,10.43
2023-02-23T22:17:06.398Z,12.43
2023-02-23T22:19:33.159Z,12.48
2023-02-23T22:21:59.790Z,9.48
2023-02-23T22:24:26.278Z,12.02
2023-02-23T22:26:52.930Z,9.13
2023-02-23T22:29:20.081Z,12.63
2023-02-23T22:31:46.829Z,18.45
2023-02-23T22:34:14.536Z,11.38
2023-02-23T22:36:41.242Z,9.18
2023-02-23T22:39:07.962Z,8.98
2023-02-23T22:41:34.493Z,6.93
2023-02-23T22:44:01.003Z,11.95
2023-02-23T22:46:27.684Z,9.60
2023-02-23T22:48:54.302Z,6.57
2023-02-23T22:51:21.311Z,7.70
2023-02-23T22:53:48.102Z,6.50
2023-02-23T22:56:14.565Z,7.13
2023-02-23T22:58:41.101Z,8.77
2023-02-23T23:01:11.450Z,8.20
2023-02-23T23:03:44.011Z,9.30
2023-02-23T23:06:11.277Z,8.55
2023-02-23T23:08:43.315Z,5.17
2023-02-23T23:11:12.935Z,7.75
2023-02-23T23:13:42.152Z,10.25
2023-02-23T23:16:10.165Z,9.55
2023-02-23T23:18:36.702Z,9.13
2023-02-23T23:21:03.499Z,7.93
2023-02-23T23:23:30.100Z,11.20
2023-02-23T23:25:56.603Z,6.45
2023-02-23T23:28:23.185Z,7.80
2023-02-23T23:30:50.422Z,11.27
2023-02-23T23:33:16.968Z,11.27
2023-02-23T23:35:43.630Z,16.75
2023-02-23T23:38:10.197Z,18.73
2023-02-23T23:40:37.047Z,25.20
2023-02-23T23:43:03.606Z,28.10
2023-02-23T23:45:30.110Z,30.98
2023-02-23T23:47:56.708Z,16.70
2023-02-23T23:50:23.266Z,18.08
2023-02-23T23:52:49.909Z,11.20
2023-02-23T23:55:16.372Z,10.27
2023-02-23T23:57:43.364Z,11.20
